Hoosierville, Indiana
Current Conditions -  °F | °C
As of 8:53 AM on Wednesday 26 Nov 2014 (Local Time) from KHUF Reporting Station
Overcast Overcast  
Wind Chill: 17°   Ceiling: 1100
Heat Index: 25°   Visibility: 10mi
Dew Point: 21°   Wind: 7mph
Humidity: 85%   Direction: 110°ESE
Pressure: 30.15"   Gusts: NA
Location:  39.5158°N, 87.1262°W
Report Text: KHUF 261353Z 11006KT 10SM OVC011 M04/M06 A3015 RMK AO2 SLP218 T10391061
Loading
Personal Weather Stations






























Interactive Weather Map New forecast layout! Learn more

10-Day Weather Forecast

Advertisements
Track Severe Weather on mobile